Time;durP1;ratioP1;P1;durP2;ratioP2;P2;SDS_P1;SDS_P2;PMS_P1;PMS_P2;Temp;Humidity;BMP_temperature;BMP_pressure;BME280_temperature;BME280_humidity;BME280_pressure;Samples;Min_cycle;Max_cycle;Signal;HPM_P1;HPM_P2
2022/11/05 00:18:28;;;;;;;103.20;97.55;;;;;;;;;;10127686;28;20057;-69
2022/11/05 00:28:42;;;;;;;108.53;102.55;;;;;;;;;;10137715;28;20055;-73
2022/11/05 00:33:40;;;;;;;108.90;102.82;;;;;;;;;;10140717;28;20041;-72
2022/11/05 00:38:36;;;;;;;106.63;100.75;;;;;;;;;;10145515;28;20100;-70
2022/11/05 00:54:02;;;;;;;104.78;98.97;;;;;;;;;;10127776;28;20049;-69
2022/11/05 00:58:58;;;;;;;101.13;95.00;;;;;;;;;;10120619;28;20062;-71
2022/11/05 01:03:55;;;;;;;100.05;94.22;;;;;;;;;;10131326;28;20047;-72
2022/11/05 01:08:51;;;;;;;95.65;90.28;;;;;;;;;;10146209;28;20054;-72
2022/11/05 01:13:47;;;;;;;95.45;90.20;;;;;;;;;;10130871;28;20042;-69
2022/11/05 01:18:43;;;;;;;95.80;89.38;;;;;;;;;;10137603;28;20525;-73
2022/11/05 01:23:40;;;;;;;94.70;89.47;;;;;;;;;;10137405;28;20055;-73
2022/11/05 01:28:36;;;;;;;99.80;93.72;;;;;;;;;;10141781;28;20414;-73
2022/11/05 01:33:32;;;;;;;99.40;93.80;;;;;;;;;;10138749;28;20552;-73
2022/11/05 01:38:29;;;;;;;94.85;89.68;;;;;;;;;;10147755;28;20042;-74
2022/11/05 01:43:25;;;;;;;101.57;95.80;;;;;;;;;;10143242;28;20057;-70
2022/11/05 01:48:21;;;;;;;100.53;94.85;;;;;;;;;;10134532;28;20719;-70
2022/11/05 01:53:20;;;;;;;97.82;92.05;;;;;;;;;;10148448;28;20042;-69
2022/11/05 01:58:19;;;;;;;100.63;94.80;;;;;;;;;;10146083;28;20042;-71
2022/11/05 02:03:15;;;;;;;94.18;89.00;;;;;;;;;;10133121;28;20049;-73
2022/11/05 02:08:18;;;;;;;101.20;95.38;;;;;;;;;;10163591;28;20051;-73
2022/11/05 02:13:14;;;;;;;;;;;;;;;;;;10140673;28;20046;-71
2022/11/05 02:18:40;;;;;;;104.57;98.65;;;;;;;;;;10145741;28;19921;-70
2022/11/05 02:23:39;;;;;;;102.90;97.07;;;;;;;;;;10089287;28;20402;-70
2022/11/05 02:28:35;;;;;;;103.85;97.82;;;;;;;;;;10139070;28;20035;-71
2022/11/05 02:33:42;;;;;;;103.07;97.15;;;;;;;;;;10147695;28;20236;-70
2022/11/05 02:38:48;;;;;;;108.78;102.45;;;;;;;;;;10134868;28;20054;-69
2022/11/05 02:43:50;;;;;;;110.88;104.10;;;;;;;;;;10136398;28;20050;-70
2022/11/05 02:48:54;;;;;;;108.80;102.32;;;;;;;;;;10139773;28;20051;-70
2022/11/05 02:53:53;;;;;;;108.60;102.20;;;;;;;;;;10138201;28;20046;-71
2022/11/05 02:58:49;;;;;;;104.60;98.35;;;;;;;;;;10132372;28;20046;-71
2022/11/05 03:03:48;;;;;;;103.68;98.03;;;;;;;;;;10144756;28;20775;-71
2022/11/05 03:09:03;;;;;;;104.55;98.15;;;;;;;;;;10139659;28;20683;-71
2022/11/05 03:14:20;;;;;;;101.80;96.13;;;;;;;;;;10134135;28;20038;-70
2022/11/05 03:19:26;;;;;;;100.05;94.18;;;;;;;;;;10146858;28;20049;-69
2022/11/05 03:24:25;;;;;;;96.70;91.35;;;;;;;;;;10124785;28;20466;-71
2022/11/05 03:29:23;;;;;;;94.80;89.70;;;;;;;;;;10132307;28;20409;-69
2022/11/05 03:34:23;;;;;;;95.03;89.88;;;;;;;;;;10127556;28;20065;-69
2022/11/05 03:39:23;;;;;;;104.10;98.57;;;;;;;;;;10126022;28;20050;-70
2022/11/05 03:44:23;;;;;;;99.88;94.25;;;;;;;;;;10137328;28;20042;-71
2022/11/05 03:49:33;;;;;;;99.78;94.18;;;;;;;;;;10140220;28;20119;-70
2022/11/05 03:54:29;;;;;;;102.25;96.72;;;;;;;;;;10132775;28;20073;-69
2022/11/05 03:59:26;;;;;;;102.10;96.28;;;;;;;;;;10140275;28;20073;-70
2022/11/05 04:04:23;;;;;;;100.63;95.03;;;;;;;;;;10154427;28;20047;-70
2022/11/05 04:14:34;;;;;;;100.15;94.35;;;;;;;;;;10155527;28;20418;-72
2022/11/05 04:24:58;;;;;;;92.63;87.38;;;;;;;;;;10149852;28;20034;-70
2022/11/05 04:35:09;;;;;;;90.15;84.72;;;;;;;;;;10145540;28;20045;-69
2022/11/05 04:40:05;;;;;;;95.20;89.57;;;;;;;;;;10153838;28;20077;-69
2022/11/05 04:45:02;;;;;;;91.80;86.25;;;;;;;;;;10133556;28;20035;-71
2022/11/05 04:49:58;;;;;;;93.13;87.38;;;;;;;;;;10145899;28;20055;-72
2022/11/05 04:54:54;;;;;;;90.78;84.82;;;;;;;;;;10131602;28;20038;-69
2022/11/05 04:59:51;;;;;;;87.35;82.18;;;;;;;;;;10149544;28;20035;-69
2022/11/05 05:04:47;;;;;;;86.10;81.30;;;;;;;;;;10135630;28;20050;-70
2022/11/05 05:09:43;;;;;;;90.13;85.25;;;;;;;;;;10127297;28;20058;-72
2022/11/05 05:14:39;;;;;;;87.18;82.20;;;;;;;;;;10141320;28;20047;-70
2022/11/05 05:21:37;;;;;;;87.75;82.50;;;;;;;;;;10137599;28;20118;-70
2022/11/05 05:24:53;;;;;;;85.35;80.70;;;;;;;;;;10141208;28;20047;-70
2022/11/05 05:29:49;;;;;;;92.03;86.97;;;;;;;;;;10134746;28;20058;-69
2022/11/05 05:34:45;;;;;;;96.68;91.47;;;;;;;;;;10141397;28;20054;-70
2022/11/05 05:39:43;;;;;;;92.28;87.03;;;;;;;;;;10136583;28;20507;-71
2022/11/05 05:44:39;;;;;;;91.05;85.85;;;;;;;;;;10145635;28;20399;-71
2022/11/05 05:49:35;;;;;;;88.90;83.57;;;;;;;;;;10134723;28;20487;-72
2022/11/05 05:54:32;;;;;;;83.53;78.97;;;;;;;;;;10135800;28;20630;-70
2022/11/05 05:59:34;;;;;;;;;;;;;;;;;;10150516;28;20093;-69
2022/11/05 06:04:31;;;;;;;78.72;73.93;;;;;;;;;;10128771;28;19933;-68
2022/11/05 06:09:27;;;;;;;80.45;76.20;;;;;;;;;;10131224;28;20046;-69
2022/11/05 06:14:23;;;;;;;76.47;72.22;;;;;;;;;;10148163;28;20053;-70
2022/11/05 06:19:20;;;;;;;79.10;74.65;;;;;;;;;;10133604;28;20049;-70
2022/11/05 06:24:16;;;;;;;76.80;72.47;;;;;;;;;;10142708;28;20093;-71
2022/11/05 06:29:12;;;;;;;76.95;72.60;;;;;;;;;;10120739;28;20050;-71
2022/11/05 06:34:09;;;;;;;83.93;78.55;;;;;;;;;;10129816;28;20043;-71
2022/11/05 06:39:10;;;;;;;80.45;75.65;;;;;;;;;;10123983;28;20042;-67
2022/11/05 06:44:06;;;;;;;78.07;73.78;;;;;;;;;;10119321;28;20454;-68
2022/11/05 06:49:02;;;;;;;78.88;74.55;;;;;;;;;;10114346;28;20054;-69
2022/11/05 06:53:58;;;;;;;79.38;74.53;;;;;;;;;;10119369;28;20039;-68
2022/11/05 06:58:54;;;;;;;74.63;70.10;;;;;;;;;;10118491;28;20046;-68
2022/11/05 07:03:51;;;;;;;79.78;75.28;;;;;;;;;;10116877;28;20545;-68
2022/11/05 07:08:47;;;;;;;78.75;73.47;;;;;;;;;;10121252;28;20077;-68
2022/11/05 07:13:43;;;;;;;81.03;76.30;;;;;;;;;;10135332;28;20062;-68
2022/11/05 07:18:39;;;;;;;80.25;75.15;;;;;;;;;;10134737;28;20054;-68
2022/11/05 07:23:36;;;;;;;79.18;74.50;;;;;;;;;;10126829;28;20043;-68
2022/11/05 07:28:32;;;;;;;76.10;71.35;;;;;;;;;;10129809;28;20050;-69
2022/11/05 07:33:28;;;;;;;78.97;74.40;;;;;;;;;;10115066;28;20049;-68
2022/11/05 07:38:31;;;;;;;80.70;76.20;;;;;;;;;;10146432;28;20522;-68
2022/11/05 07:43:27;;;;;;;78.18;73.38;;;;;;;;;;10131439;28;20038;-70
2022/11/05 07:48:24;;;;;;;73.40;69.13;;;;;;;;;;10131412;28;20065;-68
2022/11/05 07:53:20;;;;;;;76.13;71.68;;;;;;;;;;10134331;28;20042;-67
2022/11/05 07:58:17;;;;;;;73.55;69.32;;;;;;;;;;10121467;28;20062;-68
2022/11/05 08:03:14;;;;;;;67.75;63.90;;;;;;;;;;10122996;28;20558;-68
2022/11/05 08:08:16;;;;;;;69.18;64.95;;;;;;;;;;10122635;28;20050;-69
2022/11/05 08:13:14;;;;;;;;;;;;;;;;;;10126287;28;20054;-73
2022/11/05 08:18:15;;;;;;;64.32;59.58;;;;;;;;;;10131586;28;19928;-73
2022/11/05 08:23:12;;;;;;;56.17;52.72;;;;;;;;;;10136125;28;20054;-73
2022/11/05 08:28:10;;;;;;;53.83;50.83;;;;;;;;;;10134010;28;20510;-72
2022/11/05 08:33:10;;;;;;;53.42;50.22;;;;;;;;;;10134436;28;20634;-72
2022/11/05 08:38:09;;;;;;;48.97;46.05;;;;;;;;;;10137249;28;20073;-73
2022/11/05 08:43:06;;;;;;;47.25;44.50;;;;;;;;;;10144125;28;20046;-73
2022/11/05 08:48:03;;;;;;;45.28;42.35;;;;;;;;;;10122637;28;20483;-73
2022/11/05 08:53:00;;;;;;;40.80;38.45;;;;;;;;;;10130730;28;20049;-73
2022/11/05 08:57:58;;;;;;;42.75;40.00;;;;;;;;;;10129067;28;20121;-73
2022/11/05 09:02:56;;;;;;;43.28;40.53;;;;;;;;;;10143005;28;21433;-72
2022/11/05 09:07:53;;;;;;;39.58;37.08;;;;;;;;;;10089716;28;1036098;-72
2022/11/05 09:12:56;;;;;;;37.05;34.22;;;;;;;;;;10134750;28;20185;-72
2022/11/05 09:17:53;;;;;;;34.65;31.75;;;;;;;;;;10133479;28;20045;-72
2022/11/05 09:22:49;;;;;;;34.85;32.42;;;;;;;;;;10143756;28;20499;-72
2022/11/05 09:27:46;;;;;;;34.65;32.22;;;;;;;;;;10137950;28;20042;-71
2022/11/05 09:32:42;;;;;;;27.23;25.25;;;;;;;;;;10133729;28;20042;-72
2022/11/05 09:37:39;;;;;;;26.30;24.40;;;;;;;;;;10147401;28;20141;-71
2022/11/05 09:42:40;;;;;;;25.45;23.75;;;;;;;;;;10145925;28;20060;-72
2022/11/05 09:47:39;;;;;;;23.88;22.02;;;;;;;;;;10136271;28;20122;-71
2022/11/05 09:52:36;;;;;;;23.67;21.63;;;;;;;;;;10135868;28;20039;-72
2022/11/05 09:57:42;;;;;;;20.45;18.77;;;;;;;;;;10136663;28;20138;-71
2022/11/05 10:02:47;;;;;;;20.30;18.80;;;;;;;;;;10134112;28;20461;-71
2022/11/05 10:07:48;;;;;;;21.75;20.15;;;;;;;;;;10130252;28;20981;-71
2022/11/05 10:12:48;;;;;;;21.05;19.42;;;;;;;;;;10140002;28;20050;-71
2022/11/05 10:17:49;;;;;;;20.17;18.48;;;;;;;;;;10135861;28;20422;-71
2022/11/05 10:22:47;;;;;;;18.42;16.98;;;;;;;;;;10147503;28;20069;-72
2022/11/05 10:27:52;;;;;;;18.27;16.67;;;;;;;;;;10149889;28;20105;-71
2022/11/05 10:32:52;;;;;;;16.45;15.25;;;;;;;;;;10135084;28;20045;-71
2022/11/05 10:37:49;;;;;;;15.30;14.02;;;;;;;;;;10139038;28;20408;-71
2022/11/05 10:42:53;;;;;;;15.30;13.98;;;;;;;;;;10128970;28;20047;-72
2022/11/05 10:48:04;;;;;;;13.45;12.38;;;;;;;;;;10127921;28;20046;-72
2022/11/05 10:53:03;;;;;;;13.85;12.48;;;;;;;;;;10139629;28;20039;-71
2022/11/05 10:58:10;;;;;;;16.63;12.45;;;;;;;;;;10127199;28;20050;-72
2022/11/05 11:03:26;;;;;;;13.25;11.95;;;;;;;;;;10128625;28;20046;-72
2022/11/05 11:08:23;;;;;;;13.73;12.50;;;;;;;;;;10126920;28;20038;-72
2022/11/05 11:13:24;;;;;;;14.15;12.68;;;;;;;;;;10149648;28;20052;-72
2022/11/05 11:18:26;;;;;;;12.27;10.68;;;;;;;;;;10137690;28;20045;-71
2022/11/05 11:23:22;;;;;;;12.95;11.75;;;;;;;;;;10132242;28;20057;-71
2022/11/05 11:28:39;;;;;;;12.10;11.00;;;;;;;;;;10137884;28;20041;-71
2022/11/05 11:33:36;;;;;;;13.85;9.82;;;;;;;;;;10131105;28;20525;-71
2022/11/05 11:38:33;;;;;;;11.52;9.98;;;;;;;;;;10137548;28;20057;-71
2022/11/05 11:43:33;;;;;;;10.27;9.23;;;;;;;;;;10126387;28;20418;-70
2022/11/05 11:48:30;;;;;;;11.15;10.15;;;;;;;;;;10153989;28;20050;-70
2022/11/05 11:53:33;;;;;;;10.07;9.13;;;;;;;;;;10138335;28;20508;-70
2022/11/05 11:58:29;;;;;;;;;;;;;;;;;;10131264;28;20049;-70
2022/11/05 12:03:28;;;;;;;10.05;9.23;;;;;;;;;;10132334;28;20471;-72
2022/11/05 12:08:34;;;;;;;9.88;8.88;;;;;;;;;;10125251;28;20046;-72
2022/11/05 12:13:46;;;;;;;12.85;8.80;;;;;;;;;;10114823;28;20055;-72
2022/11/05 12:18:48;;;;;;;12.00;10.23;;;;;;;;;;10121844;28;20046;-71
2022/11/05 12:23:56;;;;;;;9.68;8.77;;;;;;;;;;10118508;28;20054;-72
2022/11/05 12:29:11;;;;;;;11.75;8.90;;;;;;;;;;10152619;28;20042;-72
2022/11/05 12:34:31;;;;;;;8.90;8.10;;;;;;;;;;10141554;28;20062;-72
2022/11/05 12:39:27;;;;;;;;;;;;;;;;;;10137670;28;20054;-73
2022/11/05 12:44:33;;;;;;;10.80;8.13;;;;;;;;;;10143402;28;19972;-71
2022/11/05 12:49:39;;;;;;;11.10;7.70;;;;;;;;;;10129666;28;20042;-70
2022/11/05 12:54:48;;;;;;;8.90;8.00;;;;;;;;;;10138473;28;20043;-71
2022/11/05 12:59:50;;;;;;;10.13;7.97;;;;;;;;;;10134011;28;20403;-71
2022/11/05 13:04:58;;;;;;;19.42;8.32;;;;;;;;;;10139933;28;20047;-72
2022/11/05 13:09:58;;;;;;;8.85;7.95;;;;;;;;;;10127696;28;20050;-71
2022/11/05 13:14:59;;;;;;;9.88;8.43;;;;;;;;;;10134419;28;20042;-71
2022/11/05 13:19:55;;;;;;;10.43;9.43;;;;;;;;;;10129915;28;20046;-71
2022/11/05 13:24:54;;;;;;;9.35;8.52;;;;;;;;;;10127317;28;20054;-69
2022/11/05 13:29:52;;;;;;;12.18;8.93;;;;;;;;;;10135101;28;20112;-69
2022/11/05 13:34:48;;;;;;;11.32;8.75;;;;;;;;;;10121257;28;20045;-69
2022/11/05 13:39:51;;;;;;;10.25;7.95;;;;;;;;;;10138623;28;20046;-70
2022/11/05 13:45:12;;;;;;;10.52;8.43;;;;;;;;;;10122756;28;20050;-71
2022/11/05 13:50:16;;;;;;;9.80;8.80;;;;;;;;;;10127315;28;20045;-68
2022/11/05 13:55:29;;;;;;;9.77;8.73;;;;;;;;;;10128251;28;20042;-69
2022/11/05 14:00:27;;;;;;;8.75;7.85;;;;;;;;;;10115959;28;20058;-68
2022/11/05 14:05:32;;;;;;;12.93;8.52;;;;;;;;;;10118021;28;20062;-67
2022/11/05 14:10:31;;;;;;;10.13;8.38;;;;;;;;;;10132471;28;20060;-68
2022/11/05 14:15:28;;;;;;;9.40;8.13;;;;;;;;;;10129237;28;20057;-68
2022/11/05 14:20:30;;;;;;;9.90;8.57;;;;;;;;;;10128938;28;20097;-68
2022/11/05 14:25:27;;;;;;;9.23;8.30;;;;;;;;;;10135170;28;20042;-68
2022/11/05 14:30:39;;;;;;;11.15;8.45;;;;;;;;;;10126949;28;20046;-68
2022/11/05 14:35:37;;;;;;;9.75;8.93;;;;;;;;;;10120585;28;20136;-68
2022/11/05 14:40:37;;;;;;;9.52;8.60;;;;;;;;;;10124342;28;20133;-67
2022/11/05 14:45:35;;;;;;;9.60;8.80;;;;;;;;;;10121572;28;20051;-68
2022/11/05 14:50:38;;;;;;;11.50;10.32;;;;;;;;;;10129332;28;20058;-68
2022/11/05 14:55:36;;;;;;;10.90;10.05;;;;;;;;;;10123446;28;20042;-69
2022/11/05 15:00:39;;;;;;;13.35;11.50;;;;;;;;;;10129595;28;20684;-69
2022/11/05 15:05:48;;;;;;;12.85;11.75;;;;;;;;;;10124919;28;20606;-70
2022/11/05 15:10:46;;;;;;;13.15;12.07;;;;;;;;;;10132257;28;20061;-70
2022/11/05 15:15:45;;;;;;;14.00;12.80;;;;;;;;;;10133461;28;20573;-70
2022/11/05 15:20:43;;;;;;;14.30;12.95;;;;;;;;;;10132710;28;20065;-69
2022/11/05 15:25:40;;;;;;;14.48;13.38;;;;;;;;;;10128919;28;20403;-67
2022/11/05 15:30:36;;;;;;;14.30;12.80;;;;;;;;;;10131974;28;20075;-67
2022/11/05 15:35:36;;;;;;;14.23;12.77;;;;;;;;;;10134869;28;20046;-65
2022/11/05 15:40:33;;;;;;;15.73;13.48;;;;;;;;;;10137180;28;20054;-65
2022/11/05 15:45:29;;;;;;;15.80;14.50;;;;;;;;;;10133337;28;20509;-66
2022/11/05 15:50:25;;;;;;;15.93;14.77;;;;;;;;;;10134768;28;20057;-65
2022/11/05 15:55:26;;;;;;;16.05;14.75;;;;;;;;;;10140321;28;20486;-66
2022/11/05 16:00:24;;;;;;;19.00;17.42;;;;;;;;;;10148717;28;20503;-68
2022/11/05 16:05:20;;;;;;;19.17;17.40;;;;;;;;;;10133081;28;20050;-67
2022/11/05 16:10:18;;;;;;;18.65;16.90;;;;;;;;;;10135483;28;20050;-67
2022/11/05 16:15:20;;;;;;;19.33;17.63;;;;;;;;;;10154113;28;20529;-68
2022/11/05 16:20:16;;;;;;;18.33;16.92;;;;;;;;;;10135619;28;20490;-67
2022/11/05 16:25:20;;;;;;;20.23;18.80;;;;;;;;;;10132853;28;20054;-67
2022/11/05 16:30:17;;;;;;;19.15;17.15;;;;;;;;;;10128137;28;20053;-67
2022/11/05 16:35:18;;;;;;;19.88;18.33;;;;;;;;;;10134166;28;20042;-67
2022/11/05 16:40:17;;;;;;;19.00;17.35;;;;;;;;;;10137796;28;20046;-66
2022/11/05 16:45:15;;;;;;;19.58;17.92;;;;;;;;;;10129827;28;20524;-67
2022/11/05 16:50:13;;;;;;;17.42;16.13;;;;;;;;;;10135495;28;20438;-67
2022/11/05 16:55:09;;;;;;;18.67;17.20;;;;;;;;;;10136494;28;20491;-67
2022/11/05 17:00:06;;;;;;;18.85;17.08;;;;;;;;;;10126728;28;20052;-67
2022/11/05 17:05:05;;;;;;;19.90;18.38;;;;;;;;;;10125969;28;20080;-67
2022/11/05 17:10:01;;;;;;;19.73;18.13;;;;;;;;;;10126932;28;20051;-67
2022/11/05 17:14:58;;;;;;;19.13;17.58;;;;;;;;;;10132076;28;20047;-67
2022/11/05 17:19:54;;;;;;;19.58;18.23;;;;;;;;;;10125667;28;20108;-67
2022/11/05 17:24:50;;;;;;;19.50;17.90;;;;;;;;;;10123119;28;20047;-67
2022/11/05 17:29:47;;;;;;;19.80;18.10;;;;;;;;;;10139633;28;20076;-67
2022/11/05 17:34:43;;;;;;;21.05;18.85;;;;;;;;;;10135536;28;20038;-67
2022/11/05 17:39:39;;;;;;;21.95;19.95;;;;;;;;;;10148468;28;20038;-67
2022/11/05 17:44:36;;;;;;;23.05;20.58;;;;;;;;;;10140633;28;20064;-67
2022/11/05 17:49:32;;;;;;;21.15;19.55;;;;;;;;;;10142990;28;20077;-67
2022/11/05 17:54:29;;;;;;;22.42;20.67;;;;;;;;;;10126460;28;20059;-68
2022/11/05 17:59:25;;;;;;;22.95;20.83;;;;;;;;;;10124606;28;20051;-68
2022/11/05 18:04:21;;;;;;;23.48;21.63;;;;;;;;;;10132127;28;20042;-68
2022/11/05 18:09:18;;;;;;;22.52;20.80;;;;;;;;;;10136847;28;20403;-67
2022/11/05 18:14:23;;;;;;;21.35;19.52;;;;;;;;;;10126759;28;20038;-68
2022/11/05 18:19:19;;;;;;;22.05;20.17;;;;;;;;;;10133707;28;20414;-68
2022/11/05 18:24:16;;;;;;;21.83;19.75;;;;;;;;;;10121510;28;20427;-68
2022/11/05 18:29:12;;;;;;;21.17;19.48;;;;;;;;;;10136481;28;20995;-68
2022/11/05 18:34:09;;;;;;;21.88;19.88;;;;;;;;;;10133402;28;20054;-68
2022/11/05 18:39:06;;;;;;;21.30;19.52;;;;;;;;;;10124489;28;20066;-68
2022/11/05 18:44:02;;;;;;;22.42;20.20;;;;;;;;;;10127693;28;20137;-67
2022/11/05 18:48:59;;;;;;;20.75;18.88;;;;;;;;;;10125357;28;20047;-68
2022/11/05 18:53:56;;;;;;;21.35;19.40;;;;;;;;;;10132035;28;20098;-68
2022/11/05 18:58:52;;;;;;;23.00;20.13;;;;;;;;;;10140961;28;20593;-68
2022/11/05 19:04:09;;;;;;;21.13;18.98;;;;;;;;;;10140891;28;20049;-68
2022/11/05 19:09:07;;;;;;;19.98;18.08;;;;;;;;;;10132969;28;20423;-68
2022/11/05 19:14:04;;;;;;;21.65;19.10;;;;;;;;;;10136756;28;21492;-68
2022/11/05 19:19:01;;;;;;;19.75;17.45;;;;;;;;;;10141851;28;20144;-68
2022/11/05 19:24:00;;;;;;;19.73;18.13;;;;;;;;;;10123631;28;20387;-68
2022/11/05 19:29:00;;;;;;;20.17;18.30;;;;;;;;;;10127656;28;20042;-66
2022/11/05 19:33:56;;;;;;;17.50;15.88;;;;;;;;;;10132810;28;20050;-68
2022/11/05 19:38:56;;;;;;;17.85;16.40;;;;;;;;;;10124486;28;21594;-68
2022/11/05 19:43:56;;;;;;;16.58;15.07;;;;;;;;;;10126032;28;20578;-68
2022/11/05 19:48:53;;;;;;;16.55;15.00;;;;;;;;;;10129269;28;21419;-68
2022/11/05 19:53:52;;;;;;;16.77;15.43;;;;;;;;;;10131647;28;20046;-68
2022/11/05 19:58:48;;;;;;;18.38;16.67;;;;;;;;;;10127890;28;20055;-68
2022/11/05 20:03:44;;;;;;;17.75;16.13;;;;;;;;;;10125900;28;20413;-68
2022/11/05 20:08:41;;;;;;;19.73;17.85;;;;;;;;;;10132121;28;20435;-68
2022/11/05 20:13:57;;;;;;;19.25;17.63;;;;;;;;;;10140105;28;20050;-61
2022/11/05 20:18:55;;;;;;;18.92;17.05;;;;;;;;;;10120430;28;20193;-68
2022/11/05 20:23:54;;;;;;;18.38;16.75;;;;;;;;;;10130449;28;20057;-67
2022/11/05 20:28:50;;;;;;;19.05;17.40;;;;;;;;;;10129480;28;20062;-68
2022/11/05 20:33:47;;;;;;;19.60;18.13;;;;;;;;;;10139158;28;20752;-68
2022/11/05 20:38:54;;;;;;;21.40;19.27;;;;;;;;;;10128594;28;20053;-67
2022/11/05 20:43:50;;;;;;;20.52;18.52;;;;;;;;;;10128794;28;20407;-68
2022/11/05 20:48:47;;;;;;;21.45;19.60;;;;;;;;;;10133056;28;20035;-68
2022/11/05 20:53:45;;;;;;;21.67;19.90;;;;;;;;;;10132320;28;20052;-68
2022/11/05 20:58:41;;;;;;;22.02;20.20;;;;;;;;;;10137771;28;20558;-67
2022/11/05 21:03:37;;;;;;;20.50;18.80;;;;;;;;;;10139911;28;20054;-67
2022/11/05 21:08:34;;;;;;;20.95;19.02;;;;;;;;;;10133291;28;20375;-68
2022/11/05 21:13:30;;;;;;;20.98;18.80;;;;;;;;;;10136287;28;20456;-67
2022/11/05 21:18:28;;;;;;;20.73;18.65;;;;;;;;;;10120863;28;20052;-68
2022/11/05 21:23:28;;;;;;;21.30;19.60;;;;;;;;;;10124196;28;20056;-68
2022/11/05 21:28:24;;;;;;;21.02;19.13;;;;;;;;;;10132995;28;20046;-66
2022/11/05 21:33:20;;;;;;;20.45;18.65;;;;;;;;;;10122662;28;20038;-67
2022/11/05 21:38:17;;;;;;;19.55;17.83;;;;;;;;;;10126753;28;20502;-68
2022/11/05 21:43:13;;;;;;;18.73;17.25;;;;;;;;;;10120070;28;20130;-67
2022/11/05 21:48:10;;;;;;;19.85;17.88;;;;;;;;;;10135133;28;20034;-67
2022/11/05 22:03:40;;;;;;;21.45;19.75;;;;;;;;;;10143923;28;20050;-67
2022/11/05 22:08:37;;;;;;;22.45;20.30;;;;;;;;;;10139381;28;20058;-67
2022/11/05 22:13:33;;;;;;;21.33;19.08;;;;;;;;;;10147921;28;20053;-67
2022/11/05 22:18:29;;;;;;;20.95;19.25;;;;;;;;;;10141262;28;20053;-67
2022/11/05 22:23:25;;;;;;;20.88;18.92;;;;;;;;;;10140782;28;20065;-67
2022/11/05 22:28:22;;;;;;;21.90;19.90;;;;;;;;;;10133336;28;20062;-67
2022/11/05 22:33:18;;;;;;;21.45;19.85;;;;;;;;;;10117964;28;20039;-67
2022/11/05 22:38:14;;;;;;;22.77;20.98;;;;;;;;;;10120635;28;20049;-67
2022/11/05 22:43:12;;;;;;;22.25;20.05;;;;;;;;;;10117659;28;20046;-67
2022/11/05 22:48:08;;;;;;;19.77;18.17;;;;;;;;;;10124102;28;20038;-67
2022/11/05 22:53:05;;;;;;;19.83;18.23;;;;;;;;;;10119381;28;20122;-67
2022/11/05 22:58:01;;;;;;;20.55;18.85;;;;;;;;;;10130600;28;20050;-67
2022/11/05 23:02:57;;;;;;;19.45;17.95;;;;;;;;;;10121170;28;20050;-67
2022/11/05 23:13:09;;;;;;;20.52;18.42;;;;;;;;;;10139512;28;20074;-67
2022/11/05 23:28:37;;;;;;;17.83;16.10;;;;;;;;;;10138382;28;20054;-66
2022/11/05 23:33:33;;;;;;;18.70;17.00;;;;;;;;;;10133485;28;20053;-67
2022/11/05 23:38:32;;;;;;;17.60;16.30;;;;;;;;;;10137597;28;20052;-66
2022/11/05 23:48:43;;;;;;;17.55;16.33;;;;;;;;;;10138625;28;20051;-66
2022/11/05 23:53:40;;;;;;;17.98;16.58;;;;;;;;;;10133957;28;20050;-66
2022/11/05 23:58:36;;;;;;;17.88;16.27;;;;;;;;;;10139368;28;20043;-66
